עמוד ראשי
METAR-TAF:

METAR-TAF

שדות תעופה :

Lossiemouth, סקוטלנד

קו רוחב: 57-43N, קו אורך: 003-19W, גובה: 13מטר

תצפית מזג אוויר נוכחית

הדו"ח נערך לפני 1 שעות ו 2דקות, בשעה 05:50 UTC
רוח 6קשר מכיוון מזרח/דרום-מזרח
טמפרטורת 12 צלסיוס
לחות 82%
לחץ 1018 hPa
ראות 10 קילומטר או יותר
מעט עננים בגובה 2700רגל

METAR: EGQS 200550Z 12006KT 9999 FEW027 12/09 Q1018 RMK BLU

זמן: 07:52 (06:52 UTC)

תחזית

הדו"ח נערך לפני 2 שעות ו 30דקות, בשעה 04:22 UTC
תחזית בתוקף מ 20 ב 06 UTC עד 20 ב 24 UTC
רוח 8קשר מכיוון מזרח
ראות 10 קילומטר או יותר
מעט עננים בגובה 2000רגל
הסתברות 30% :
זמנית מ -
20 ב 06 UTC עד 20 ב 10 UTC
עננים פזורים בגובה 2000רגל

TAF: EGQS 200422Z 2006/2024 10008KT 9999 FEW020 PROB30 TEMPO 2006/2010 SCT020

תצפיות ותחזיות מזג אוויר לגבי יותר מ- 4,000 שדות תעופה ברחבי העולם. דוחות METAR ו- TAF.

התחנות הזמינות מסומנות בנקודות צהובות ואדומות על גבי המפה.

העבר את העכבר לנקודה הצבעונית על מנת לראות את שם התחנה.

לאחר מכן, לחץ כדי לראות את תוכן ואת תחזיות מזג האוויר.

כדי לשנות את המפה: לחץ על הכפתורים הירוקים עם הפלוס השחור כדי להתקרב; על הכפתור הירוק עם המקף כדי להתרחק; או בחיצים הירוקים למפות סמוכות.


METAR-TAF: